createdAt,value
2023-03-12T00:02:23.434Z,99779.34
2023-03-12T00:05:34.719Z,99793.47
2023-03-12T00:08:43.170Z,99803.78
2023-03-12T00:11:49.675Z,99808.81
2023-03-12T00:14:55.934Z,99805.56
2023-03-12T00:18:01.546Z,99808.91
2023-03-12T00:21:13.550Z,99816.38
2023-03-12T00:24:20.998Z,99824.81
2023-03-12T00:27:28.851Z,99830.38
2023-03-12T00:30:40.801Z,99835.63
2023-03-12T00:33:47.004Z,99842.59
2023-03-12T00:36:55.985Z,99842.03
2023-03-12T00:40:09.813Z,99846.88
2023-03-12T00:43:15.223Z,99849.25
2023-03-12T00:46:20.120Z,99853.63
2023-03-12T00:49:24.498Z,99863.34
2023-03-12T00:52:31.803Z,99865.63
2023-03-12T00:55:42.313Z,99876.66
2023-03-12T00:58:50.896Z,99876.66
2023-03-12T01:02:00.720Z,99875.56
2023-03-12T01:05:11.300Z,99873.81
2023-03-12T01:08:21.465Z,99875.84
2023-03-12T01:11:33.154Z,99873.94
2023-03-12T01:14:40.500Z,99880.56
2023-03-12T01:17:45.784Z,99886.78
2023-03-12T01:20:55.067Z,99895.88
2023-03-12T01:24:01.309Z,99888.06
2023-03-12T01:27:09.045Z,99883.44
2023-03-12T01:30:15.576Z,99885.56
2023-03-12T01:33:25.693Z,99876.44
2023-03-12T01:36:34.492Z,99877.75
2023-03-12T01:39:42.330Z,99870.97
2023-03-12T01:42:57.163Z,99873.59
2023-03-12T01:46:08.282Z,99887.47
2023-03-12T01:49:23.919Z,99892.47
2023-03-12T01:52:37.616Z,99899.31
2023-03-12T01:55:47.623Z,99897.75
2023-03-12T01:58:59.375Z,99901.31
2023-03-12T02:02:07.762Z,99915.91
2023-03-12T02:05:35.900Z,99907.94
2023-03-12T02:08:44.834Z,99913.75
2023-03-12T02:11:52.532Z,99921.91
2023-03-12T02:14:57.764Z,99921.56
2023-03-12T02:18:05.337Z,99936.72
2023-03-12T02:21:23.943Z,99930.88
2023-03-12T02:24:37.085Z,99943.75
2023-03-12T02:27:46.123Z,99942.72
2023-03-12T02:30:57.172Z,99942.56
2023-03-12T02:34:05.399Z,99949.16
2023-03-12T02:37:16.822Z,99949.38
2023-03-12T02:40:40.750Z,99960.75
2023-03-12T02:43:52.012Z,99973.41
2023-03-12T02:47:01.144Z,99983.84
2023-03-12T02:50:10.832Z,99974.53
2023-03-12T02:53:21.661Z,99983.94
2023-03-12T02:56:30.238Z,99972.91
2023-03-12T02:59:37.194Z,99982.59
2023-03-12T03:02:44.550Z,99986.78
2023-03-12T03:05:51.936Z,99985.53
2023-03-12T03:09:01.241Z,99993.16
2023-03-12T03:12:10.356Z,100012.56
2023-03-12T03:15:19.764Z,100009.78
2023-03-12T03:18:26.376Z,100008.84
2023-03-12T03:21:37.278Z,100010.28
2023-03-12T03:24:44.611Z,100016.25
2023-03-12T03:27:54.355Z,100015.81
2023-03-12T03:31:06.040Z,100020.00
2023-03-12T03:34:16.304Z,100033.97
2023-03-12T03:37:24.186Z,100040.63
2023-03-12T03:40:32.131Z,100043.97
2023-03-12T03:43:39.834Z,100037.09
2023-03-12T03:46:48.493Z,100039.78
2023-03-12T03:49:56.148Z,100047.91
2023-03-12T03:53:05.828Z,100046.87
2023-03-12T03:56:12.786Z,100044.59
2023-03-12T03:59:21.379Z,100039.59
2023-03-12T04:02:31.392Z,100042.38
2023-03-12T04:05:41.439Z,100058.22
2023-03-12T04:08:47.740Z,100066.12
2023-03-12T04:11:58.697Z,100058.31
2023-03-12T04:15:05.842Z,100060.09
2023-03-12T04:18:14.382Z,100071.91
2023-03-12T04:21:24.313Z,100079.62
2023-03-12T04:24:35.153Z,100093.19
2023-03-12T04:27:43.076Z,100101.25
2023-03-12T04:31:01.543Z,100110.38
2023-03-12T04:34:12.575Z,100122.69
2023-03-12T04:37:23.116Z,100120.75
2023-03-12T04:40:33.243Z,100133.22
2023-03-12T04:43:44.760Z,100137.03
2023-03-12T04:46:54.414Z,100146.63
2023-03-12T04:50:07.064Z,100137.91
2023-03-12T04:53:14.160Z,100138.41
2023-03-12T04:56:21.747Z,100140.62
2023-03-12T04:59:29.216Z,100154.78
2023-03-12T05:02:43.755Z,100164.88
2023-03-12T05:05:51.392Z,100165.03
2023-03-12T05:08:58.861Z,100167.75
2023-03-12T05:12:06.101Z,100166.13
2023-03-12T05:15:13.707Z,100172.44
2023-03-12T05:18:22.103Z,100169.28
2023-03-12T05:21:36.044Z,100166.97
2023-03-12T05:24:45.544Z,100172.41
2023-03-12T05:27:58.908Z,100172.94
2023-03-12T05:31:17.601Z,100177.47
2023-03-12T05:34:26.704Z,100186.94
2023-03-12T05:37:32.024Z,100194.62
2023-03-12T05:40:44.961Z,100194.53
2023-03-12T05:43:54.943Z,100200.19
2023-03-12T05:47:05.939Z,100197.78
2023-03-12T05:50:14.117Z,100197.47
2023-03-12T05:53:22.484Z,100208.12
2023-03-12T05:56:32.279Z,100214.81
2023-03-12T05:59:41.552Z,100227.81
2023-03-12T06:02:47.907Z,100226.81
2023-03-12T06:05:56.169Z,100235.78
2023-03-12T06:09:05.517Z,100235.31
2023-03-12T06:12:14.440Z,100247.94
2023-03-12T06:15:23.998Z,100251.31
2023-03-12T06:18:34.276Z,100258.72
2023-03-12T06:21:46.810Z,100261.84
2023-03-12T06:24:56.823Z,100274.78
2023-03-12T06:28:06.011Z,100283.25
2023-03-12T06:31:17.682Z,100280.22
2023-03-12T06:34:26.410Z,100281.44
2023-03-12T06:37:34.374Z,100290.31
2023-03-12T06:40:41.512Z,100301.87
2023-03-12T06:43:50.049Z,100313.72
2023-03-12T06:46:59.101Z,100312.63
2023-03-12T06:50:05.811Z,100317.06
2023-03-12T06:53:13.294Z,100319.16
2023-03-12T06:56:21.562Z,100321.81
2023-03-12T06:59:28.602Z,100321.25
2023-03-12T07:02:37.551Z,100331.44
2023-03-12T07:05:51.076Z,100336.59
2023-03-12T07:08:59.535Z,100338.44
2023-03-12T07:12:06.498Z,100336.06
2023-03-12T07:15:15.012Z,100338.34
2023-03-12T07:18:23.752Z,100338.87
2023-03-12T07:21:31.941Z,100350.19
2023-03-12T07:24:40.233Z,100348.31
2023-03-12T07:27:49.220Z,100350.03
2023-03-12T07:31:01.318Z,100346.81
2023-03-12T07:34:14.179Z,100354.97
2023-03-12T07:37:22.456Z,100362.94
2023-03-12T07:40:28.291Z,100361.41
2023-03-12T07:43:35.817Z,100368.09
2023-03-12T07:46:42.310Z,100368.81
2023-03-12T07:49:49.392Z,100380.47
2023-03-12T07:52:59.115Z,100372.47
2023-03-12T07:56:06.934Z,100369.03
2023-03-12T07:59:14.023Z,100388.66
2023-03-12T08:02:19.699Z,100379.28
2023-03-12T08:05:26.544Z,100385.19
2023-03-12T08:08:34.191Z,100387.41
2023-03-12T08:11:44.724Z,100386.13
2023-03-12T08:14:51.993Z,100380.34
2023-03-12T08:18:01.579Z,100397.97
2023-03-12T08:21:08.793Z,100394.97
2023-03-12T08:24:18.608Z,100399.19
2023-03-12T08:27:24.935Z,100400.25
2023-03-12T08:30:34.521Z,100402.06
2023-03-12T08:33:44.952Z,100408.16
2023-03-12T08:36:52.748Z,100405.69
2023-03-12T08:39:59.047Z,100406.44
2023-03-12T08:43:08.281Z,100416.75
2023-03-12T08:46:14.848Z,100411.06
2023-03-12T08:49:23.600Z,100412.56
2023-03-12T08:52:29.236Z,100414.13
2023-03-12T08:55:39.396Z,100400.72
2023-03-12T08:58:49.070Z,100414.16
2023-03-12T09:01:59.009Z,100404.06
2023-03-12T09:05:07.369Z,100392.19
2023-03-12T09:08:18.104Z,100397.41
2023-03-12T09:11:24.448Z,100392.87
2023-03-12T09:17:57.557Z,100388.91
2023-03-12T09:21:06.508Z,100386.97
2023-03-12T09:24:12.028Z,100391.12
2023-03-12T09:27:20.538Z,100393.69
2023-03-12T09:30:29.636Z,100377.22
2023-03-12T09:33:41.720Z,100381.06
2023-03-12T09:36:48.889Z,100390.13
2023-03-12T09:39:56.216Z,100384.22
2023-03-12T09:43:05.821Z,100381.81
2023-03-12T09:46:15.172Z,100387.19
2023-03-12T09:49:40.202Z,100378.16
2023-03-12T09:52:59.604Z,100382.63
2023-03-12T09:56:14.571Z,100376.03
2023-03-12T09:59:22.121Z,100368.66
2023-03-12T10:02:32.367Z,100368.91
2023-03-12T10:05:55.635Z,100380.06
2023-03-12T10:09:01.191Z,100378.06
2023-03-12T10:12:28.248Z,100378.78
2023-03-12T10:15:53.943Z,100378.63
2023-03-12T10:19:18.877Z,100378.16
2023-03-12T10:22:28.639Z,100381.22
2023-03-12T10:25:42.802Z,100382.72
2023-03-12T10:28:55.245Z,100381.38
2023-03-12T10:32:12.829Z,100382.13
2023-03-12T10:35:24.482Z,100388.47
2023-03-12T10:38:33.214Z,100387.06
2023-03-12T10:41:40.179Z,100383.00
2023-03-12T10:44:50.765Z,100391.31
2023-03-12T10:47:58.949Z,100384.31
2023-03-12T10:51:10.488Z,100379.28
2023-03-12T10:54:23.999Z,100394.13
2023-03-12T10:57:42.420Z,100395.63
2023-03-12T11:00:56.812Z,100390.97
2023-03-12T11:04:20.123Z,100399.56
2023-03-12T11:07:28.704Z,100398.91
2023-03-12T11:10:40.374Z,100391.88
2023-03-12T11:13:45.463Z,100398.91
2023-03-12T11:16:50.546Z,100393.03
2023-03-12T11:19:57.458Z,100392.19
2023-03-12T11:23:13.809Z,100396.81
2023-03-12T11:26:23.407Z,100393.25
2023-03-12T11:29:33.541Z,100391.66
2023-03-12T11:32:50.688Z,100392.78
2023-03-12T11:36:04.860Z,100385.25
2023-03-12T11:39:33.364Z,100397.53
2023-03-12T11:42:45.433Z,100395.97
2023-03-12T11:46:11.959Z,100399.69
2023-03-12T11:49:26.806Z,100396.75
2023-03-12T11:52:38.441Z,100388.38
2023-03-12T11:55:48.140Z,100393.03
2023-03-12T11:59:08.512Z,100387.16
2023-03-12T12:02:20.320Z,100389.28
2023-03-12T12:05:30.111Z,100384.53
2023-03-12T12:08:39.152Z,100391.16
2023-03-12T12:11:48.909Z,100389.34
2023-03-12T12:15:03.917Z,100381.22
2023-03-12T12:18:29.984Z,100366.34
2023-03-12T12:21:33.865Z,100370.75
2023-03-12T12:24:42.433Z,100367.00
2023-03-12T12:27:48.584Z,100363.53
2023-03-12T12:30:55.069Z,100350.81
2023-03-12T12:34:02.658Z,100360.94
2023-03-12T12:37:07.628Z,100361.91
2023-03-12T12:40:21.002Z,100355.44
2023-03-12T12:43:38.625Z,100368.12
2023-03-12T12:46:57.523Z,100348.28
2023-03-12T12:50:08.609Z,100360.31
2023-03-12T12:53:18.647Z,100362.03
2023-03-12T12:56:36.533Z,100354.34
2023-03-12T12:59:51.152Z,100362.53
2023-03-12T13:02:57.041Z,100364.72
2023-03-12T13:06:05.587Z,100368.31
2023-03-12T13:09:16.671Z,100354.06
2023-03-12T13:12:22.016Z,100365.66
2023-03-12T13:15:34.290Z,100361.28
2023-03-12T13:18:42.497Z,100356.09
2023-03-12T13:22:01.016Z,100361.09
2023-03-12T13:25:11.006Z,100357.97
2023-03-12T13:28:39.358Z,100351.63
2023-03-12T13:31:43.749Z,100354.28
2023-03-12T13:34:50.522Z,100357.72
2023-03-12T13:37:56.233Z,100357.84
2023-03-12T13:41:06.401Z,100362.03
2023-03-12T13:44:23.259Z,100364.78
2023-03-12T13:47:30.692Z,100374.12
2023-03-12T13:50:43.716Z,100375.69
2023-03-12T13:54:01.046Z,100370.53
2023-03-12T13:57:13.006Z,100362.47
2023-03-12T14:00:27.909Z,100360.81
2023-03-12T14:03:42.018Z,100372.91
2023-03-12T14:06:59.457Z,100365.72
2023-03-12T14:10:16.762Z,100372.31
2023-03-12T14:13:31.025Z,100364.38
2023-03-12T14:16:45.832Z,100365.81
2023-03-12T14:20:13.201Z,100372.00
2023-03-12T14:23:23.313Z,100372.50
2023-03-12T14:26:33.624Z,100376.00
2023-03-12T14:29:54.752Z,100375.09
2023-03-12T14:33:05.674Z,100379.44
2023-03-12T14:36:22.183Z,100366.44
2023-03-12T14:39:31.791Z,100381.81
2023-03-12T14:42:40.370Z,100374.97
2023-03-12T14:45:46.494Z,100378.09
2023-03-12T14:48:55.933Z,100367.94
2023-03-12T14:52:02.546Z,100356.72
2023-03-12T14:55:14.246Z,100374.28
2023-03-12T14:58:19.585Z,100365.53
2023-03-12T15:01:25.366Z,100368.66
2023-03-12T15:04:34.975Z,100365.87
2023-03-12T15:07:43.117Z,100369.94
2023-03-12T15:10:53.608Z,100367.91
2023-03-12T15:14:03.314Z,100355.22
2023-03-12T15:17:08.968Z,100372.34
2023-03-12T15:20:16.552Z,100376.88
2023-03-12T15:23:22.467Z,100365.94
2023-03-12T15:26:34.252Z,100369.94
2023-03-12T15:29:43.430Z,100379.25
2023-03-12T15:33:09.525Z,100390.00
2023-03-12T15:36:19.918Z,100384.16
2023-03-12T15:39:33.375Z,100388.44
2023-03-12T15:42:41.236Z,100387.91
2023-03-12T15:45:50.050Z,100385.94
2023-03-12T15:48:58.792Z,100386.25
2023-03-12T15:52:08.977Z,100395.72
2023-03-12T15:55:16.734Z,100389.59
2023-03-12T15:58:28.638Z,100390.75
2023-03-12T16:01:45.466Z,100400.50
2023-03-12T16:04:51.423Z,100397.91
2023-03-12T16:08:03.797Z,100408.62
2023-03-12T16:11:20.514Z,100412.97
2023-03-12T16:14:30.900Z,100416.34
2023-03-12T16:17:37.711Z,100408.16
2023-03-12T16:20:42.517Z,100420.22
2023-03-12T16:23:49.803Z,100421.47
2023-03-12T16:26:57.568Z,100422.06
2023-03-12T16:30:04.174Z,100421.66
2023-03-12T16:33:09.853Z,100435.25
2023-03-12T16:36:18.689Z,100432.88
2023-03-12T16:39:26.215Z,100430.53
2023-03-12T16:42:33.971Z,100433.72
2023-03-12T16:45:44.477Z,100440.37
2023-03-12T16:48:54.285Z,100443.00
2023-03-12T16:52:07.415Z,100443.97
2023-03-12T16:55:12.625Z,100450.47
2023-03-12T16:58:22.635Z,100446.19
2023-03-12T17:01:30.288Z,100448.50
2023-03-12T17:04:38.813Z,100453.34
2023-03-12T17:07:49.759Z,100458.72
2023-03-12T17:11:00.768Z,100461.06
2023-03-12T17:14:22.040Z,100470.50
2023-03-12T17:17:32.522Z,100475.28
2023-03-12T17:20:42.230Z,100476.72
2023-03-12T17:23:47.936Z,100477.84
2023-03-12T17:26:57.639Z,100472.16
2023-03-12T17:30:05.474Z,100466.31
2023-03-12T17:33:13.409Z,100469.38
2023-03-12T17:36:19.343Z,100476.56
2023-03-12T17:39:24.811Z,100474.94
2023-03-12T17:42:30.115Z,100471.97
2023-03-12T17:45:40.048Z,100477.03
2023-03-12T17:48:50.021Z,100476.53
2023-03-12T17:51:56.443Z,100475.03
2023-03-12T17:55:01.539Z,100461.03
2023-03-12T17:58:10.901Z,100472.19
2023-03-12T18:01:18.711Z,100468.19
2023-03-12T18:04:28.899Z,100465.62
2023-03-12T18:07:36.406Z,100468.31
2023-03-12T18:10:44.501Z,100472.38
2023-03-12T18:13:51.181Z,100466.81
2023-03-12T18:16:58.720Z,100461.88
2023-03-12T18:20:11.143Z,100465.47
2023-03-12T18:23:25.622Z,100466.72
2023-03-12T18:26:32.790Z,100470.81
2023-03-12T18:29:42.533Z,100472.25
2023-03-12T18:32:49.345Z,100488.00
2023-03-12T18:35:56.350Z,100493.84
2023-03-12T18:39:08.176Z,100492.31
2023-03-12T18:42:19.375Z,100501.06
2023-03-12T18:45:25.635Z,100496.19
2023-03-12T18:48:33.063Z,100504.16
2023-03-12T18:51:39.035Z,100512.25
2023-03-12T18:54:43.844Z,100507.34
2023-03-12T18:57:48.620Z,100499.72
2023-03-12T19:00:57.663Z,100491.13
2023-03-12T19:04:02.793Z,100499.03
2023-03-12T19:07:08.238Z,100498.19
2023-03-12T19:10:18.639Z,100500.59
2023-03-12T19:13:24.448Z,100499.38
2023-03-12T19:16:30.610Z,100494.28
2023-03-12T19:19:36.294Z,100503.44
2023-03-12T19:22:41.386Z,100486.75
2023-03-12T19:25:48.304Z,100488.06
2023-03-12T19:28:54.230Z,100492.13
2023-03-12T19:32:01.149Z,100510.22
2023-03-12T19:35:06.633Z,100511.28
2023-03-12T19:38:13.601Z,100521.28
2023-03-12T19:41:21.179Z,100521.63
2023-03-12T19:44:33.650Z,100527.81
2023-03-12T19:47:41.593Z,100538.91
2023-03-12T19:50:46.150Z,100542.97
2023-03-12T19:53:52.878Z,100553.09
2023-03-12T19:56:59.366Z,100548.94
2023-03-12T20:00:10.260Z,100540.34
2023-03-12T20:03:16.136Z,100537.12
2023-03-12T20:06:21.089Z,100536.63
2023-03-12T20:09:28.388Z,100538.56
2023-03-12T20:12:35.288Z,100542.31
2023-03-12T20:15:45.565Z,100536.72
2023-03-12T20:18:53.735Z,100537.66
2023-03-12T20:22:03.957Z,100536.56
2023-03-12T20:25:11.706Z,100534.16
2023-03-12T20:28:19.773Z,100536.91
2023-03-12T20:31:24.712Z,100540.59
2023-03-12T20:34:34.117Z,100550.47
2023-03-12T20:37:42.665Z,100552.00
2023-03-12T20:40:50.965Z,100550.94
2023-03-12T20:44:01.548Z,100537.38
2023-03-12T20:47:09.964Z,100529.16
2023-03-12T20:50:19.355Z,100524.19
2023-03-12T20:53:27.745Z,100531.44
2023-03-12T20:56:39.806Z,100540.62
2023-03-12T20:59:48.247Z,100547.09
2023-03-12T21:02:54.203Z,100543.38
2023-03-12T21:06:03.159Z,100545.75
2023-03-12T21:09:11.616Z,100551.69
2023-03-12T21:12:18.944Z,100556.22
2023-03-12T21:15:27.878Z,100568.16
2023-03-12T21:18:35.814Z,100572.44
2023-03-12T21:21:41.912Z,100557.44
2023-03-12T21:24:49.880Z,100551.72
2023-03-12T21:27:56.573Z,100555.31
2023-03-12T21:31:10.642Z,100555.53
2023-03-12T21:34:18.995Z,100547.41
2023-03-12T21:37:29.456Z,100539.91
2023-03-12T21:40:33.749Z,100542.28
2023-03-12T21:43:39.519Z,100550.88
2023-03-12T21:46:44.592Z,100549.78
2023-03-12T21:49:52.441Z,100535.69
2023-03-12T21:52:57.559Z,100531.28
2023-03-12T21:56:04.599Z,100538.25
2023-03-12T21:59:11.738Z,100535.25
2023-03-12T22:02:20.395Z,100539.25
2023-03-12T22:05:27.395Z,100540.19
2023-03-12T22:08:33.824Z,100526.13
2023-03-12T22:11:43.333Z,100526.22
2023-03-12T22:14:55.532Z,100522.75
2023-03-12T22:18:06.761Z,100526.91
2023-03-12T22:21:21.816Z,100531.09
2023-03-12T22:24:30.234Z,100539.72
2023-03-12T22:27:37.807Z,100526.44
2023-03-12T22:30:46.393Z,100522.72
2023-03-12T22:33:54.453Z,100524.75
2023-03-12T22:37:03.188Z,100533.56
2023-03-12T22:40:11.583Z,100534.25
2023-03-12T22:43:20.092Z,100526.91
2023-03-12T22:46:27.679Z,100531.44
2023-03-12T22:49:36.684Z,100530.84
2023-03-12T22:52:43.767Z,100534.19
2023-03-12T22:55:59.688Z,100533.22
2023-03-12T22:59:03.732Z,100539.31
2023-03-12T23:02:12.907Z,100543.47
2023-03-12T23:05:19.381Z,100546.56
2023-03-12T23:08:24.919Z,100561.06
2023-03-12T23:11:31.510Z,100558.56
2023-03-12T23:14:39.066Z,100564.66
2023-03-12T23:17:43.097Z,100568.09
2023-03-12T23:20:58.498Z,100578.38
2023-03-12T23:24:04.198Z,100567.59
2023-03-12T23:27:10.378Z,100580.69
2023-03-12T23:30:16.056Z,100577.75
2023-03-12T23:33:22.335Z,100574.88
2023-03-12T23:36:30.117Z,100580.94
2023-03-12T23:39:44.986Z,100587.50
2023-03-12T23:42:52.774Z,100582.09
2023-03-12T23:45:59.347Z,100588.59
2023-03-12T23:49:04.840Z,100589.66
2023-03-12T23:52:09.553Z,100585.97
2023-03-12T23:55:14.884Z,100586.34
2023-03-12T23:58:22.029Z,100583.91
